createdAt,value
2023-01-10T00:00:35.551Z,100534.69
2023-01-10T00:03:02.976Z,100541.66
2023-01-10T00:05:29.492Z,100537.25
2023-01-10T00:07:58.921Z,100546.78
2023-01-10T00:10:25.968Z,100557.19
2023-01-10T00:13:10.999Z,100545.03
2023-01-10T00:15:37.749Z,100558.81
2023-01-10T00:18:04.473Z,100558.13
2023-01-10T00:20:31.542Z,100565.88
2023-01-10T00:22:58.032Z,100570.91
2023-01-10T00:25:24.813Z,100562.41
2023-01-10T00:28:02.169Z,100570.16
2023-01-10T00:30:28.751Z,100577.16
2023-01-10T00:32:56.729Z,100581.50
2023-01-10T00:35:23.336Z,100572.09
2023-01-10T00:37:49.768Z,100579.09
2023-01-10T00:40:16.327Z,100582.59
2023-01-10T00:43:01.291Z,100592.09
2023-01-10T00:45:27.724Z,100603.44
2023-01-10T00:47:54.131Z,100600.63
2023-01-10T00:50:20.581Z,100606.66
2023-01-10T00:52:46.949Z,100611.84
2023-01-10T00:55:13.358Z,100614.44
2023-01-10T00:57:39.779Z,100623.91
2023-01-10T01:00:09.068Z,100631.66
2023-01-10T01:02:36.401Z,100634.28
2023-01-10T01:05:03.802Z,100626.69
2023-01-10T01:07:30.392Z,100634.50
2023-01-10T01:10:16.256Z,100643.13
2023-01-10T01:12:43.015Z,100654.28
2023-01-10T01:15:09.526Z,100656.84
2023-01-10T01:17:36.576Z,100653.25
2023-01-10T01:20:03.209Z,100666.31
2023-01-10T01:22:29.612Z,100679.41
2023-01-10T01:24:56.592Z,100684.72
2023-01-10T01:27:22.942Z,100686.56
2023-01-10T01:29:49.418Z,100705.84
2023-01-10T01:32:16.139Z,100703.44
2023-01-10T01:34:42.578Z,100707.75
2023-01-10T01:37:09.044Z,100705.25
2023-01-10T01:39:35.658Z,100718.47
2023-01-10T01:42:02.227Z,100722.88
2023-01-10T01:44:33.861Z,100727.22
2023-01-10T01:47:05.915Z,100742.91
2023-01-10T01:49:36.973Z,100736.00
2023-01-10T01:52:08.454Z,100751.50
2023-01-10T01:54:35.536Z,100754.19
2023-01-10T01:57:14.833Z,100759.50
2023-01-10T01:59:47.524Z,100761.09
2023-01-10T02:02:20.777Z,100762.88
2023-01-10T02:04:55.997Z,100763.75
2023-01-10T02:07:24.113Z,100772.41
2023-01-10T02:09:55.428Z,100784.47
2023-01-10T02:12:22.914Z,100780.09
2023-01-10T02:14:51.068Z,100779.38
2023-01-10T02:17:18.392Z,100790.72
2023-01-10T02:19:44.688Z,100793.22
2023-01-10T02:23:05.596Z,100805.28
2023-01-10T02:25:55.680Z,100805.22
2023-01-10T02:28:43.696Z,100810.53
2023-01-10T02:31:31.354Z,100811.41
2023-01-10T02:34:11.488Z,100820.13
2023-01-10T02:36:49.196Z,100822.69
2023-01-10T02:39:15.721Z,100827.13
2023-01-10T02:41:50.054Z,100830.72
2023-01-10T02:44:36.767Z,100832.44
2023-01-10T02:47:04.729Z,100830.63
2023-01-10T02:49:31.159Z,100830.63
2023-01-10T02:51:57.545Z,100842.75
2023-01-10T02:54:30.680Z,100848.88
2023-01-10T02:57:25.321Z,100850.63
2023-01-10T03:00:20.602Z,100849.78
2023-01-10T03:02:58.146Z,100854.97
2023-01-10T03:05:55.367Z,100853.34
2023-01-10T03:08:34.575Z,100857.56
2023-01-10T03:11:04.338Z,100871.41
2023-01-10T03:13:34.516Z,100859.31
2023-01-10T03:16:03.114Z,100860.19
2023-01-10T03:18:36.260Z,100861.03
2023-01-10T03:21:05.810Z,100875.00
2023-01-10T03:23:34.857Z,100877.63
2023-01-10T03:26:03.346Z,100872.50
2023-01-10T03:28:35.792Z,100878.63
2023-01-10T03:31:09.999Z,100884.72
2023-01-10T03:33:37.464Z,100880.34
2023-01-10T03:36:23.006Z,100884.56
2023-01-10T03:39:02.843Z,100887.09
2023-01-10T03:41:58.585Z,100885.41
2023-01-10T03:44:43.689Z,100886.41
2023-01-10T03:47:24.204Z,100903.78
2023-01-10T03:49:58.649Z,100902.94
2023-01-10T03:52:26.079Z,100917.56
2023-01-10T03:54:53.830Z,100927.97
2023-01-10T03:57:22.465Z,100931.53
2023-01-10T03:59:57.927Z,100941.06
2023-01-10T04:02:27.420Z,100948.03
2023-01-10T04:04:53.918Z,100955.94
2023-01-10T04:07:20.381Z,100955.06
2023-01-10T04:09:46.771Z,100965.53
2023-01-10T04:12:13.100Z,100964.75
2023-01-10T04:14:39.556Z,100969.13
2023-01-10T04:17:06.080Z,100979.56
2023-01-10T04:19:32.523Z,100980.47
2023-01-10T04:21:58.922Z,100973.56
2023-01-10T04:24:25.689Z,100975.31
2023-01-10T04:26:52.032Z,100980.50
2023-01-10T04:29:18.452Z,100996.06
2023-01-10T04:31:44.922Z,100986.53
2023-01-10T04:34:11.375Z,101001.22
2023-01-10T04:36:37.904Z,101008.16
2023-01-10T04:39:04.821Z,101009.06
2023-01-10T04:41:31.241Z,101023.72
2023-01-10T04:43:57.675Z,101026.31
2023-01-10T04:46:24.134Z,101031.50
2023-01-10T04:48:50.657Z,101033.22
2023-01-10T04:51:17.055Z,101034.06
2023-01-10T04:53:43.433Z,101038.31
2023-01-10T04:56:16.618Z,101033.13
2023-01-10T04:58:42.977Z,101043.53
2023-01-10T05:01:15.177Z,101040.06
2023-01-10T05:03:41.840Z,101049.53
2023-01-10T05:06:09.201Z,101046.94
2023-01-10T05:08:35.730Z,101047.81
2023-01-10T05:11:02.172Z,101061.69
2023-01-10T05:13:28.528Z,101062.53
2023-01-10T05:15:56.582Z,101062.53
2023-01-10T05:18:22.987Z,101064.25
2023-01-10T05:20:49.442Z,101072.94
2023-01-10T05:23:15.848Z,101076.41
2023-01-10T05:25:42.699Z,101076.41
2023-01-10T05:28:12.634Z,101076.38
2023-01-10T05:30:39.142Z,101094.59
2023-01-10T05:33:06.051Z,101104.09
2023-01-10T05:35:33.631Z,101106.66
2023-01-10T05:38:00.222Z,101110.16
2023-01-10T05:40:26.567Z,101124.03
2023-01-10T05:42:52.985Z,101123.22
2023-01-10T05:45:19.365Z,101119.72
2023-01-10T05:47:45.785Z,101129.22
2023-01-10T05:50:12.549Z,101127.50
2023-01-10T05:52:38.997Z,101130.06
2023-01-10T05:55:05.554Z,101128.34
2023-01-10T05:57:31.967Z,101130.03
2023-01-10T05:59:58.447Z,101136.13
2023-01-10T06:02:26.403Z,101149.19
2023-01-10T06:04:55.183Z,101152.69
2023-01-10T06:07:22.762Z,101163.06
2023-01-10T06:09:51.383Z,101166.53
2023-01-10T06:12:19.071Z,101176.06
2023-01-10T06:14:46.019Z,101173.50
2023-01-10T06:17:12.469Z,101180.44
2023-01-10T06:19:38.912Z,101174.34
2023-01-10T06:22:05.687Z,101183.00
2023-01-10T06:24:32.287Z,101183.88
2023-01-10T06:26:58.684Z,101187.31
2023-01-10T06:29:25.168Z,101193.38
2023-01-10T06:31:51.557Z,101198.59
2023-01-10T06:34:17.995Z,101202.94
2023-01-10T06:36:44.348Z,101209.88
2023-01-10T06:39:10.837Z,101211.63
2023-01-10T06:41:37.325Z,101216.81
2023-01-10T06:44:03.786Z,101222.88
2023-01-10T06:46:30.273Z,101222.88
2023-01-10T06:48:56.639Z,101215.09
2023-01-10T06:51:23.058Z,101228.09
2023-01-10T06:53:49.576Z,101222.03
2023-01-10T06:56:16.814Z,101236.75
2023-01-10T06:58:43.241Z,101238.50
2023-01-10T07:01:14.650Z,101239.34
2023-01-10T07:03:44.888Z,101239.34
2023-01-10T07:06:11.561Z,101254.94
2023-01-10T07:08:42.646Z,101255.75
2023-01-10T07:11:09.610Z,101261.00
2023-01-10T07:13:36.978Z,101264.47
2023-01-10T07:16:08.263Z,101263.59
2023-01-10T07:18:36.114Z,101273.13
2023-01-10T07:21:02.544Z,101267.94
2023-01-10T07:23:31.006Z,101264.47
2023-01-10T07:26:03.055Z,101264.47
2023-01-10T07:28:29.551Z,101270.53
2023-01-10T07:31:00.008Z,101273.13
2023-01-10T07:33:31.252Z,101270.53
2023-01-10T07:35:58.384Z,101272.25
2023-01-10T07:38:24.949Z,101280.91
2023-01-10T07:40:51.615Z,101280.94
2023-01-10T07:43:18.025Z,101282.66
2023-01-10T07:45:44.741Z,101285.22
2023-01-10T07:48:11.120Z,101287.81
2023-01-10T07:50:38.222Z,101286.97
2023-01-10T07:53:06.896Z,101297.34
2023-01-10T07:55:36.117Z,101296.47
2023-01-10T07:58:02.609Z,101298.19
2023-01-10T08:00:28.961Z,101295.59
2023-01-10T08:02:56.564Z,101296.47
2023-01-10T08:05:23.527Z,101295.56
2023-01-10T08:07:49.878Z,101292.97
2023-01-10T08:10:16.890Z,101305.97
2023-01-10T08:12:43.280Z,101299.03
2023-01-10T08:15:10.227Z,101301.59
2023-01-10T08:17:36.675Z,101303.31
2023-01-10T08:20:03.451Z,101297.25
2023-01-10T08:22:29.917Z,101305.91
2023-01-10T08:24:56.268Z,101320.66
2023-01-10T08:27:22.916Z,101324.13
2023-01-10T08:29:49.596Z,101326.72
2023-01-10T08:32:15.984Z,101322.41
2023-01-10T08:34:42.427Z,101327.56
2023-01-10T08:37:14.291Z,101337.09
2023-01-10T08:39:40.983Z,101336.22
2023-01-10T08:42:07.574Z,101335.38
2023-01-10T08:44:34.006Z,101337.97
2023-01-10T08:47:00.423Z,101336.25
2023-01-10T08:49:27.500Z,101338.81
2023-01-10T08:51:53.866Z,101342.28
2023-01-10T08:54:20.352Z,101364.81
2023-01-10T08:56:46.695Z,101369.13
2023-01-10T08:59:13.438Z,101371.72
2023-01-10T09:01:39.951Z,101370.00
2023-01-10T09:04:06.568Z,101373.44
2023-01-10T09:06:32.937Z,101364.78
2023-01-10T09:08:59.479Z,101351.81
2023-01-10T09:11:25.953Z,101344.84
2023-01-10T09:13:52.425Z,101337.91
2023-01-10T09:16:19.063Z,101332.69
2023-01-10T09:18:46.033Z,101336.13
2023-01-10T09:21:12.459Z,101347.41
2023-01-10T09:23:40.435Z,101336.13
2023-01-10T09:26:06.916Z,101332.66
2023-01-10T09:28:33.424Z,101347.38
2023-01-10T09:31:01.017Z,101358.66
2023-01-10T09:33:34.993Z,101361.25
2023-01-10T09:36:13.606Z,101347.38
2023-01-10T09:38:40.219Z,101342.16
2023-01-10T09:41:33.156Z,101368.13
2023-01-10T09:44:05.336Z,101389.78
2023-01-10T09:47:08.415Z,101391.50
2023-01-10T09:49:54.413Z,101399.31
2023-01-10T09:52:28.889Z,101401.94
2023-01-10T09:54:58.540Z,101420.16
2023-01-10T09:57:25.207Z,101409.78
2023-01-10T09:59:53.850Z,101428.81
2023-01-10T10:02:41.629Z,101416.72
2023-01-10T10:05:16.554Z,101421.03
2023-01-10T10:07:43.098Z,101420.19
2023-01-10T10:10:22.030Z,101426.22
2023-01-10T10:13:11.721Z,101421.88
2023-01-10T10:15:55.280Z,101425.38
2023-01-10T10:18:37.342Z,101434.91
2023-01-10T10:21:12.917Z,101430.56
2023-01-10T10:24:14.195Z,101421.88
2023-01-10T10:27:09.763Z,101420.97
2023-01-10T10:29:55.165Z,101422.72
2023-01-10T10:32:30.608Z,101422.75
2023-01-10T10:35:08.016Z,101409.75
2023-01-10T10:37:43.094Z,101408.84
2023-01-10T10:40:25.931Z,101416.59
2023-01-10T10:42:55.503Z,101416.59
2023-01-10T10:45:25.475Z,101423.59
2023-01-10T10:47:57.452Z,101433.13
2023-01-10T10:50:31.768Z,101431.38
2023-01-10T10:53:01.862Z,101440.09
2023-01-10T10:55:33.305Z,101427.94
2023-01-10T10:58:02.013Z,101425.34
2023-01-10T11:00:29.658Z,101431.38
2023-01-10T11:03:18.710Z,101434.88
2023-01-10T11:05:47.083Z,101434.00
2023-01-10T11:08:17.105Z,101436.63
2023-01-10T11:10:48.617Z,101434.03
2023-01-10T11:13:43.759Z,101445.31
2023-01-10T11:16:27.099Z,101451.38
2023-01-10T11:19:23.506Z,101435.72
2023-01-10T11:21:59.085Z,101442.66
2023-01-10T11:24:25.439Z,101440.06
2023-01-10T11:26:52.454Z,101440.91
2023-01-10T11:29:27.539Z,101439.16
2023-01-10T11:31:55.935Z,101449.53
2023-01-10T11:34:35.553Z,101445.19
2023-01-10T11:37:18.038Z,101444.31
2023-01-10T11:39:45.077Z,101449.53
2023-01-10T11:42:31.026Z,101444.34
2023-01-10T11:45:17.356Z,101447.81
2023-01-10T11:47:48.749Z,101451.28
2023-01-10T11:50:21.933Z,101452.13
2023-01-10T11:52:50.105Z,101438.25
2023-01-10T11:55:21.283Z,101453.88
2023-01-10T11:58:08.977Z,101437.38
2023-01-10T12:00:45.970Z,101443.47
2023-01-10T12:03:18.617Z,101438.28
2023-01-10T12:05:52.750Z,101445.16
2023-01-10T12:08:31.473Z,101434.75
2023-01-10T12:11:03.850Z,101438.25
2023-01-10T12:13:44.795Z,101439.03
2023-01-10T12:16:30.556Z,101436.44
2023-01-10T12:19:02.466Z,101429.50
2023-01-10T12:21:38.525Z,101429.47
2023-01-10T12:24:14.285Z,101432.09
2023-01-10T12:26:41.564Z,101441.59
2023-01-10T12:29:15.652Z,101440.78
2023-01-10T12:31:42.069Z,101439.03
2023-01-10T12:34:20.192Z,101438.09
2023-01-10T12:36:58.128Z,101445.88
2023-01-10T12:39:35.200Z,101445.94
2023-01-10T12:42:26.334Z,101439.03
2023-01-10T12:45:17.182Z,101438.16
2023-01-10T12:47:46.634Z,101440.75
2023-01-10T12:50:17.176Z,101445.97
2023-01-10T12:52:57.397Z,101432.97
2023-01-10T12:55:30.362Z,101432.09
2023-01-10T12:58:00.516Z,101446.81
2023-01-10T13:00:37.626Z,101445.06
2023-01-10T13:03:13.955Z,101436.38
2023-01-10T13:05:41.186Z,101442.44
2023-01-10T13:08:13.859Z,101441.56
2023-01-10T13:10:47.143Z,101441.56
2023-01-10T13:13:42.258Z,101438.06
2023-01-10T13:16:32.898Z,101431.13
2023-01-10T13:19:10.505Z,101441.53
2023-01-10T13:21:41.896Z,101435.47
2023-01-10T13:24:24.146Z,101443.28
2023-01-10T13:27:00.101Z,101431.97
2023-01-10T13:29:43.528Z,101448.47
2023-01-10T13:32:33.182Z,101431.94
2023-01-10T13:35:16.257Z,101441.50
2023-01-10T13:37:50.488Z,101423.19
2023-01-10T13:40:28.056Z,101429.25
2023-01-10T13:43:34.380Z,101427.50
2023-01-10T13:46:16.120Z,101441.47
2023-01-10T13:48:51.357Z,101440.63
2023-01-10T13:51:20.344Z,101443.22
2023-01-10T13:53:51.715Z,101450.16
2023-01-10T13:56:31.780Z,101435.41
2023-01-10T13:59:16.939Z,101442.38
2023-01-10T14:02:08.163Z,101440.63
2023-01-10T14:04:39.633Z,101445.84
2023-01-10T14:07:23.797Z,101448.44
2023-01-10T14:09:51.740Z,101461.50
2023-01-10T14:12:26.288Z,101447.63
2023-01-10T14:15:06.877Z,101452.84
2023-01-10T14:17:35.848Z,101456.38
2023-01-10T14:20:20.156Z,101459.81
2023-01-10T14:23:08.306Z,101456.28
2023-01-10T14:25:37.151Z,101453.69
2023-01-10T14:28:05.232Z,101458.03
2023-01-10T14:30:40.263Z,101440.72
2023-01-10T14:33:20.365Z,101446.78
2023-01-10T14:35:50.974Z,101441.59
2023-01-10T14:38:24.722Z,101445.06
2023-01-10T14:40:55.516Z,101431.16
2023-01-10T14:43:27.254Z,101421.56
2023-01-10T14:46:12.451Z,101423.31
2023-01-10T14:48:50.317Z,101423.31
2023-01-10T14:51:23.115Z,101418.13
2023-01-10T14:54:14.549Z,101415.50
2023-01-10T14:56:43.821Z,101413.78
2023-01-10T14:59:27.831Z,101406.00
2023-01-10T15:02:13.848Z,101410.38
2023-01-10T15:04:51.619Z,101402.53
2023-01-10T15:07:22.613Z,101404.22
2023-01-10T15:09:56.249Z,101406.81
2023-01-10T15:12:26.760Z,101404.25
2023-01-10T15:15:07.529Z,101406.88
2023-01-10T15:17:37.007Z,101399.06
2023-01-10T15:20:04.474Z,101399.91
2023-01-10T15:22:36.483Z,101399.94
2023-01-10T15:25:18.137Z,101399.09
2023-01-10T15:27:46.592Z,101399.13
2023-01-10T15:30:18.705Z,101405.22
2023-01-10T15:32:49.423Z,101405.25
2023-01-10T15:35:20.444Z,101409.59
2023-01-10T15:38:02.439Z,101407.88
2023-01-10T15:40:34.626Z,101402.66
2023-01-10T15:43:11.432Z,101403.53
2023-01-10T15:45:39.937Z,101405.25
2023-01-10T15:48:25.557Z,101394.88
2023-01-10T15:51:11.559Z,101389.66
2023-01-10T15:53:57.865Z,101377.53
2023-01-10T15:56:28.712Z,101392.31
2023-01-10T15:58:56.712Z,101381.06
2023-01-10T16:01:23.531Z,101385.41
2023-01-10T16:03:56.748Z,101378.47
2023-01-10T16:06:30.421Z,101391.44
2023-01-10T16:08:59.795Z,101379.31
2023-01-10T16:11:47.991Z,101389.75
2023-01-10T16:14:14.379Z,101393.19
2023-01-10T16:16:40.908Z,101385.38
2023-01-10T16:19:07.292Z,101387.13
2023-01-10T16:21:41.374Z,101392.28
2023-01-10T16:24:16.667Z,101379.28
2023-01-10T16:26:43.253Z,101386.22
2023-01-10T16:29:11.579Z,101378.44
2023-01-10T16:31:38.064Z,101373.25
2023-01-10T16:34:04.429Z,101370.66
2023-01-10T16:36:30.930Z,101364.56
2023-01-10T16:38:57.353Z,101365.44
2023-01-10T16:41:42.423Z,101362.88
2023-01-10T16:44:08.790Z,101351.59
2023-01-10T16:46:35.467Z,101350.75
2023-01-10T16:49:01.922Z,101338.63
2023-01-10T16:51:32.260Z,101338.59
2023-01-10T16:53:58.704Z,101326.47
2023-01-10T16:56:27.812Z,101323.00
2023-01-10T16:58:54.782Z,101332.53
2023-01-10T17:01:25.201Z,101334.25
2023-01-10T17:03:52.063Z,101341.16
2023-01-10T17:06:19.139Z,101336.00
2023-01-10T17:08:45.685Z,101329.09
2023-01-10T17:11:20.522Z,101325.56
2023-01-10T17:13:47.185Z,101322.97
2023-01-10T17:16:13.752Z,101319.50
2023-01-10T17:18:40.322Z,101304.75
2023-01-10T17:21:06.747Z,101302.16
2023-01-10T17:23:33.169Z,101300.41
2023-01-10T17:26:01.561Z,101291.72
2023-01-10T17:28:29.010Z,101290.88
2023-01-10T17:30:56.284Z,101284.81
2023-01-10T17:33:23.073Z,101277.00
2023-01-10T17:35:54.605Z,101274.47
2023-01-10T17:38:22.095Z,101264.06
2023-01-10T17:40:48.906Z,101260.59
2023-01-10T17:43:16.613Z,101257.97
2023-01-10T17:45:44.937Z,101246.69
2023-01-10T17:48:18.764Z,101251.91
2023-01-10T17:50:47.619Z,101240.66
2023-01-10T17:53:15.013Z,101243.25
2023-01-10T17:55:45.800Z,101241.50
2023-01-10T17:58:12.573Z,101236.28
2023-01-10T18:00:39.291Z,101236.31
2023-01-10T18:03:06.358Z,101234.63
2023-01-10T18:05:35.020Z,101236.38
2023-01-10T18:08:06.268Z,101219.03
2023-01-10T18:10:33.834Z,101222.44
2023-01-10T18:13:02.578Z,101223.34
2023-01-10T18:15:29.858Z,101201.72
2023-01-10T18:17:56.302Z,101217.31
2023-01-10T18:20:22.692Z,101196.53
2023-01-10T18:23:07.914Z,101196.50
2023-01-10T18:25:34.276Z,101197.41
2023-01-10T18:28:00.687Z,101193.94
2023-01-10T18:30:27.505Z,101194.78
2023-01-10T18:32:54.591Z,101193.06
2023-01-10T18:35:22.153Z,101181.78
2023-01-10T18:37:48.780Z,101182.66
2023-01-10T18:40:15.144Z,101167.03
2023-01-10T18:42:41.681Z,101167.91
2023-01-10T18:45:08.577Z,101170.50
2023-01-10T18:47:35.142Z,101157.47
2023-01-10T18:50:01.564Z,101166.16
2023-01-10T18:52:28.100Z,101158.34
2023-01-10T18:54:55.505Z,101159.22
2023-01-10T18:57:22.061Z,101154.88
2023-01-10T18:59:48.464Z,101153.97
2023-01-10T19:02:15.479Z,101155.72
2023-01-10T19:04:42.011Z,101153.16
2023-01-10T19:07:08.439Z,101143.63
2023-01-10T19:09:34.880Z,101144.53
2023-01-10T19:12:01.366Z,101139.28
2023-01-10T19:14:27.879Z,101134.97
2023-01-10T19:16:54.225Z,101135.81
2023-01-10T19:19:20.836Z,101133.19
2023-01-10T19:21:47.212Z,101127.97
2023-01-10T19:24:28.827Z,101122.78
2023-01-10T19:26:56.413Z,101127.09
2023-01-10T19:29:23.829Z,101119.25
2023-01-10T19:31:50.800Z,101114.09
2023-01-10T19:34:17.528Z,101126.22
2023-01-10T19:36:45.502Z,101111.47
2023-01-10T19:39:12.937Z,101114.00
2023-01-10T19:41:39.840Z,101117.47
2023-01-10T19:44:10.579Z,101125.28
2023-01-10T19:46:38.967Z,101111.44
2023-01-10T19:49:07.881Z,101116.63
2023-01-10T19:51:37.817Z,101110.56
2023-01-10T19:54:05.796Z,101112.34
2023-01-10T19:56:32.409Z,101116.69
2023-01-10T19:58:59.082Z,101098.47
2023-01-10T20:01:28.123Z,101098.47
2023-01-10T20:03:58.860Z,101094.13
2023-01-10T20:06:27.052Z,101108.03
2023-01-10T20:08:54.165Z,101085.47
2023-01-10T20:11:22.185Z,101096.72
2023-01-10T20:13:49.357Z,101090.63
2023-01-10T20:16:21.227Z,101090.66
2023-01-10T20:18:48.934Z,101083.81
2023-01-10T20:21:17.831Z,101074.34
2023-01-10T20:23:44.969Z,101062.19
2023-01-10T20:26:14.899Z,101065.69
2023-01-10T20:28:42.600Z,101049.34
2023-01-10T20:31:11.842Z,101054.56
2023-01-10T20:33:38.225Z,101047.72
2023-01-10T20:36:08.462Z,101046.94
2023-01-10T20:38:36.199Z,101032.28
2023-01-10T20:41:14.700Z,101035.75
2023-01-10T20:43:41.594Z,101034.06
2023-01-10T20:46:10.828Z,101020.25
2023-01-10T20:48:38.349Z,101015.03
2023-01-10T20:51:05.770Z,101016.72
2023-01-10T20:53:32.315Z,101012.44
2023-01-10T20:56:04.103Z,101005.50
2023-01-10T20:58:30.661Z,100994.31
2023-01-10T21:00:57.086Z,100989.13
2023-01-10T21:03:23.458Z,100978.78
2023-01-10T21:05:51.122Z,100974.44
2023-01-10T21:08:18.216Z,100958.88
2023-01-10T21:10:46.309Z,100936.41
2023-01-10T21:13:13.110Z,100930.28
2023-01-10T21:15:44.164Z,100908.72
2023-01-10T21:18:12.729Z,100913.03
2023-01-10T21:20:43.892Z,100902.69
2023-01-10T21:23:10.750Z,100894.00
2023-01-10T21:25:37.486Z,100903.53
2023-01-10T21:28:09.386Z,100886.19
2023-01-10T21:30:37.320Z,100880.13
2023-01-10T21:33:04.052Z,100884.50
2023-01-10T21:35:30.472Z,100881.03
2023-01-10T21:37:57.522Z,100870.63
2023-01-10T21:40:28.965Z,100859.34
2023-01-10T21:42:55.432Z,100854.13
2023-01-10T21:45:22.458Z,100841.09
2023-01-10T21:47:49.776Z,100844.53
2023-01-10T21:50:17.403Z,100834.22
2023-01-10T21:52:43.865Z,100823.91
2023-01-10T21:55:13.626Z,100833.44
2023-01-10T21:57:40.032Z,100841.16
2023-01-10T22:00:07.280Z,100837.75
2023-01-10T22:02:38.061Z,100844.72
2023-01-10T22:05:04.836Z,100833.50
2023-01-10T22:07:31.272Z,100840.47
2023-01-10T22:09:57.675Z,100841.38
2023-01-10T22:12:25.324Z,100837.06
2023-01-10T22:14:52.003Z,100840.53
2023-01-10T22:17:18.460Z,100832.75
2023-01-10T22:19:44.927Z,100822.47
2023-01-10T22:22:11.649Z,100819.91
2023-01-10T22:24:38.919Z,100816.53
2023-01-10T22:27:05.307Z,100806.16
2023-01-10T22:29:31.911Z,100803.56
2023-01-10T22:31:58.335Z,100795.78
2023-01-10T22:34:24.945Z,100778.47
2023-01-10T22:36:51.361Z,100777.63
2023-01-10T22:39:17.850Z,100766.38
2023-01-10T22:41:44.211Z,100775.91
2023-01-10T22:44:22.841Z,100768.13
2023-01-10T22:46:51.296Z,100775.94
2023-01-10T22:49:18.223Z,100761.19
2023-01-10T22:51:45.082Z,100762.03
2023-01-10T22:54:13.176Z,100745.66
2023-01-10T22:56:39.684Z,100735.28
2023-01-10T22:59:06.059Z,100762.91
2023-01-10T23:01:32.448Z,100756.88
2023-01-10T23:03:58.893Z,100752.63
2023-01-10T23:06:25.571Z,100755.19
2023-01-10T23:08:52.151Z,100769.03
2023-01-10T23:11:20.395Z,100750.88
2023-01-10T23:13:47.475Z,100736.94
2023-01-10T23:16:17.290Z,100738.69
2023-01-10T23:18:43.909Z,100736.03
2023-01-10T23:21:10.455Z,100724.75
2023-01-10T23:23:36.999Z,100735.09
2023-01-10T23:26:07.422Z,100715.25
2023-01-10T23:28:36.631Z,100704.91
2023-01-10T23:31:04.927Z,100703.16
2023-01-10T23:33:32.206Z,100710.94
2023-01-10T23:35:59.146Z,100699.69
2023-01-10T23:38:26.228Z,100698.78
2023-01-10T23:40:52.651Z,100703.94
2023-01-10T23:43:19.129Z,100695.28
2023-01-10T23:45:45.678Z,100697.03
2023-01-10T23:48:12.314Z,100698.72
2023-01-10T23:50:38.825Z,100688.28
2023-01-10T23:53:06.108Z,100687.44
2023-01-10T23:55:33.247Z,100683.97
2023-01-10T23:58:00.126Z,100693.50
